sensor_id;sensor_type;location;lat;lon;timestamp;temperature;humidity
18105;DHT22;9179;50.968;3.134;2022-08-26T00:01:48;21.10;99.90
18105;DHT22;9179;50.968;3.134;2022-08-26T00:04:15;21.00;99.90
18105;DHT22;9179;50.968;3.134;2022-08-26T00:06:42;21.00;99.90
18105;DHT22;9179;50.968;3.134;2022-08-26T00:09:09;20.90;99.90
18105;DHT22;9179;50.968;3.134;2022-08-26T00:11:36;20.90;99.90
18105;DHT22;9179;50.968;3.134;2022-08-26T00:14:04;21.00;99.90
18105;DHT22;9179;50.968;3.134;2022-08-26T00:16:31;21.10;99.90
18105;DHT22;9179;50.968;3.134;2022-08-26T00:18:58;21.10;99.90
18105;DHT22;9179;50.968;3.134;2022-08-26T00:21:25;21.10;99.90
18105;DHT22;9179;50.968;3.134;2022-08-26T00:23:52;21.20;99.90
18105;DHT22;9179;50.968;3.134;2022-08-26T00:26:19;21.20;99.90
18105;DHT22;9179;50.968;3.134;2022-08-26T00:28:46;21.30;99.90
18105;DHT22;9179;50.968;3.134;2022-08-26T00:31:15;21.20;99.90
18105;DHT22;9179;50.968;3.134;2022-08-26T00:33:42;21.20;99.90
18105;DHT22;9179;50.968;3.134;2022-08-26T00:36:09;21.30;99.90
18105;DHT22;9179;50.968;3.134;2022-08-26T00:38:37;21.30;99.90
18105;DHT22;9179;50.968;3.134;2022-08-26T00:41:04;21.20;99.90
18105;DHT22;9179;50.968;3.134;2022-08-26T00:43:33;21.10;99.90
18105;DHT22;9179;50.968;3.134;2022-08-26T00:46:05;21.20;99.90
18105;DHT22;9179;50.968;3.134;2022-08-26T00:48:36;21.20;99.90
18105;DHT22;9179;50.968;3.134;2022-08-26T00:51:05;21.20;99.90
18105;DHT22;9179;50.968;3.134;2022-08-26T00:53:40;21.20;99.90
18105;DHT22;9179;50.968;3.134;2022-08-26T00:56:14;21.20;99.90
18105;DHT22;9179;50.968;3.134;2022-08-26T00:58:43;21.30;99.90
18105;DHT22;9179;50.968;3.134;2022-08-26T01:01:13;21.20;99.90
18105;DHT22;9179;50.968;3.134;2022-08-26T01:03:42;21.20;99.90
18105;DHT22;9179;50.968;3.134;2022-08-26T01:06:10;21.20;99.90
18105;DHT22;9179;50.968;3.134;2022-08-26T01:08:37;21.20;99.90
18105;DHT22;9179;50.968;3.134;2022-08-26T01:11:05;21.20;99.90
18105;DHT22;9179;50.968;3.134;2022-08-26T01:13:32;21.20;99.90
18105;DHT22;9179;50.968;3.134;2022-08-26T01:16:02;21.20;99.90
18105;DHT22;9179;50.968;3.134;2022-08-26T01:18:30;21.20;99.90
18105;DHT22;9179;50.968;3.134;2022-08-26T01:21:04;21.20;99.90
18105;DHT22;9179;50.968;3.134;2022-08-26T01:23:39;21.10;99.90
18105;DHT22;9179;50.968;3.134;2022-08-26T01:26:09;21.00;99.90
18105;DHT22;9179;50.968;3.134;2022-08-26T01:28:38;21.00;99.90
18105;DHT22;9179;50.968;3.134;2022-08-26T01:31:09;21.10;99.90
18105;DHT22;9179;50.968;3.134;2022-08-26T01:33:42;21.10;99.90
18105;DHT22;9179;50.968;3.134;2022-08-26T01:36:10;21.20;99.90
18105;DHT22;9179;50.968;3.134;2022-08-26T01:38:39;21.20;99.90
18105;DHT22;9179;50.968;3.134;2022-08-26T01:41:07;21.20;99.90
18105;DHT22;9179;50.968;3.134;2022-08-26T01:43:37;21.20;99.90
18105;DHT22;9179;50.968;3.134;2022-08-26T01:46:05;21.10;99.90
18105;DHT22;9179;50.968;3.134;2022-08-26T01:48:34;21.00;99.90
18105;DHT22;9179;50.968;3.134;2022-08-26T01:51:02;21.00;99.90
18105;DHT22;9179;50.968;3.134;2022-08-26T01:53:30;21.00;99.90
18105;DHT22;9179;50.968;3.134;2022-08-26T01:55:59;20.90;99.90
18105;DHT22;9179;50.968;3.134;2022-08-26T01:58:30;21.00;99.90
18105;DHT22;9179;50.968;3.134;2022-08-26T02:00:59;21.00;99.90
18105;DHT22;9179;50.968;3.134;2022-08-26T02:03:26;21.00;99.90
18105;DHT22;9179;50.968;3.134;2022-08-26T02:05:56;21.10;99.90
18105;DHT22;9179;50.968;3.134;2022-08-26T02:08:26;21.00;99.90
18105;DHT22;9179;50.968;3.134;2022-08-26T02:10:54;21.00;99.90
18105;DHT22;9179;50.968;3.134;2022-08-26T02:13:24;20.90;99.90
18105;DHT22;9179;50.968;3.134;2022-08-26T02:15:52;21.00;99.90
18105;DHT22;9179;50.968;3.134;2022-08-26T02:18:20;20.90;99.90
18105;DHT22;9179;50.968;3.134;2022-08-26T02:20:47;20.90;99.90
18105;DHT22;9179;50.968;3.134;2022-08-26T02:23:14;20.90;99.90
18105;DHT22;9179;50.968;3.134;2022-08-26T02:25:46;20.90;99.90
18105;DHT22;9179;50.968;3.134;2022-08-26T02:28:14;20.90;99.90
18105;DHT22;9179;50.968;3.134;2022-08-26T02:30:43;20.90;99.90
18105;DHT22;9179;50.968;3.134;2022-08-26T02:33:11;20.90;99.90
18105;DHT22;9179;50.968;3.134;2022-08-26T02:35:38;21.00;99.90
18105;DHT22;9179;50.968;3.134;2022-08-26T02:38:06;21.10;99.90
18105;DHT22;9179;50.968;3.134;2022-08-26T02:40:36;21.10;99.90
18105;DHT22;9179;50.968;3.134;2022-08-26T02:43:04;21.00;99.90
18105;DHT22;9179;50.968;3.134;2022-08-26T02:45:31;21.00;99.90
18105;DHT22;9179;50.968;3.134;2022-08-26T02:48:04;20.90;99.90
18105;DHT22;9179;50.968;3.134;2022-08-26T02:50:34;20.80;99.90
18105;DHT22;9179;50.968;3.134;2022-08-26T02:53:01;20.80;99.90
18105;DHT22;9179;50.968;3.134;2022-08-26T02:55:28;20.90;99.90
18105;DHT22;9179;50.968;3.134;2022-08-26T02:57:55;20.90;99.90
18105;DHT22;9179;50.968;3.134;2022-08-26T03:00:22;20.90;99.90
18105;DHT22;9179;50.968;3.134;2022-08-26T03:02:49;21.00;99.90
18105;DHT22;9179;50.968;3.134;2022-08-26T03:05:17;20.90;99.90
18105;DHT22;9179;50.968;3.134;2022-08-26T03:07:47;20.90;99.90
18105;DHT22;9179;50.968;3.134;2022-08-26T03:10:20;21.00;99.90
18105;DHT22;9179;50.968;3.134;2022-08-26T03:12:47;21.00;99.90
18105;DHT22;9179;50.968;3.134;2022-08-26T03:15:15;21.10;99.90
18105;DHT22;9179;50.968;3.134;2022-08-26T03:17:43;21.00;99.90
18105;DHT22;9179;50.968;3.134;2022-08-26T03:20:10;21.00;99.90
18105;DHT22;9179;50.968;3.134;2022-08-26T03:22:39;21.10;99.90
18105;DHT22;9179;50.968;3.134;2022-08-26T03:25:09;21.00;99.90
18105;DHT22;9179;50.968;3.134;2022-08-26T03:27:36;21.00;99.90
18105;DHT22;9179;50.968;3.134;2022-08-26T03:30:04;21.00;99.90
18105;DHT22;9179;50.968;3.134;2022-08-26T03:32:48;21.20;99.90
18105;DHT22;9179;50.968;3.134;2022-08-26T03:35:15;21.20;99.90
18105;DHT22;9179;50.968;3.134;2022-08-26T03:37:44;21.20;99.90
18105;DHT22;9179;50.968;3.134;2022-08-26T03:40:11;21.20;99.90
18105;DHT22;9179;50.968;3.134;2022-08-26T03:42:39;21.20;99.90
18105;DHT22;9179;50.968;3.134;2022-08-26T03:45:08;21.20;99.90
18105;DHT22;9179;50.968;3.134;2022-08-26T03:47:35;21.20;99.90
18105;DHT22;9179;50.968;3.134;2022-08-26T03:50:03;21.00;99.90
18105;DHT22;9179;50.968;3.134;2022-08-26T03:52:31;21.00;99.90
18105;DHT22;9179;50.968;3.134;2022-08-26T03:54:59;21.00;99.90
18105;DHT22;9179;50.968;3.134;2022-08-26T03:57:26;21.00;99.90
18105;DHT22;9179;50.968;3.134;2022-08-26T03:59:53;21.00;99.90
18105;DHT22;9179;50.968;3.134;2022-08-26T04:02:20;21.00;99.90
18105;DHT22;9179;50.968;3.134;2022-08-26T04:04:47;21.10;99.90
18105;DHT22;9179;50.968;3.134;2022-08-26T04:07:14;21.10;99.90
18105;DHT22;9179;50.968;3.134;2022-08-26T04:09:41;21.20;99.90
18105;DHT22;9179;50.968;3.134;2022-08-26T04:12:09;21.20;99.90
18105;DHT22;9179;50.968;3.134;2022-08-26T04:14:37;21.10;99.90
18105;DHT22;9179;50.968;3.134;2022-08-26T04:17:04;21.10;99.90
18105;DHT22;9179;50.968;3.134;2022-08-26T04:19:32;21.10;99.90
18105;DHT22;9179;50.968;3.134;2022-08-26T04:21:59;21.10;99.90
18105;DHT22;9179;50.968;3.134;2022-08-26T04:24:26;21.20;99.90
18105;DHT22;9179;50.968;3.134;2022-08-26T04:26:53;21.20;99.90
18105;DHT22;9179;50.968;3.134;2022-08-26T04:29:24;21.10;99.90
18105;DHT22;9179;50.968;3.134;2022-08-26T04:31:52;21.20;99.90
18105;DHT22;9179;50.968;3.134;2022-08-26T04:34:20;21.20;99.90
18105;DHT22;9179;50.968;3.134;2022-08-26T04:36:48;21.20;99.90
18105;DHT22;9179;50.968;3.134;2022-08-26T04:39:15;21.30;99.90
18105;DHT22;9179;50.968;3.134;2022-08-26T04:41:43;21.30;99.90
18105;DHT22;9179;50.968;3.134;2022-08-26T04:44:10;21.20;99.90
18105;DHT22;9179;50.968;3.134;2022-08-26T04:46:39;21.20;99.90
18105;DHT22;9179;50.968;3.134;2022-08-26T04:49:06;21.20;99.90
18105;DHT22;9179;50.968;3.134;2022-08-26T04:51:34;21.20;99.90
18105;DHT22;9179;50.968;3.134;2022-08-26T04:54:01;21.20;99.90
18105;DHT22;9179;50.968;3.134;2022-08-26T04:56:30;21.20;99.90
18105;DHT22;9179;50.968;3.134;2022-08-26T04:58:58;21.20;99.90
18105;DHT22;9179;50.968;3.134;2022-08-26T05:01:25;21.10;99.90
18105;DHT22;9179;50.968;3.134;2022-08-26T05:03:54;21.10;99.90
18105;DHT22;9179;50.968;3.134;2022-08-26T05:06:21;21.10;99.90
18105;DHT22;9179;50.968;3.134;2022-08-26T05:08:48;21.00;99.90
18105;DHT22;9179;50.968;3.134;2022-08-26T05:11:16;21.10;99.90
18105;DHT22;9179;50.968;3.134;2022-08-26T05:13:43;21.10;99.90
18105;DHT22;9179;50.968;3.134;2022-08-26T05:16:12;21.20;99.90
18105;DHT22;9179;50.968;3.134;2022-08-26T05:18:40;21.20;99.90
18105;DHT22;9179;50.968;3.134;2022-08-26T05:21:16;21.20;99.90
18105;DHT22;9179;50.968;3.134;2022-08-26T05:23:43;21.20;99.90
18105;DHT22;9179;50.968;3.134;2022-08-26T05:26:10;21.30;99.90
18105;DHT22;9179;50.968;3.134;2022-08-26T05:28:37;21.20;99.90
18105;DHT22;9179;50.968;3.134;2022-08-26T05:31:11;21.30;99.90
18105;DHT22;9179;50.968;3.134;2022-08-26T05:33:38;21.30;99.90
18105;DHT22;9179;50.968;3.134;2022-08-26T05:36:06;21.40;99.90
18105;DHT22;9179;50.968;3.134;2022-08-26T05:38:35;21.40;99.90
18105;DHT22;9179;50.968;3.134;2022-08-26T05:41:02;21.50;99.90
18105;DHT22;9179;50.968;3.134;2022-08-26T05:43:29;21.50;99.90
18105;DHT22;9179;50.968;3.134;2022-08-26T05:45:55;21.50;99.90
18105;DHT22;9179;50.968;3.134;2022-08-26T05:48:30;21.70;99.90
18105;DHT22;9179;50.968;3.134;2022-08-26T05:51:01;21.80;99.90
18105;DHT22;9179;50.968;3.134;2022-08-26T05:53:30;21.90;99.90
18105;DHT22;9179;50.968;3.134;2022-08-26T05:55:58;21.90;99.90
18105;DHT22;9179;50.968;3.134;2022-08-26T05:58:26;21.90;99.90
18105;DHT22;9179;50.968;3.134;2022-08-26T06:00:58;22.00;99.90
18105;DHT22;9179;50.968;3.134;2022-08-26T06:03:26;22.00;99.90
18105;DHT22;9179;50.968;3.134;2022-08-26T06:05:53;22.10;99.90
18105;DHT22;9179;50.968;3.134;2022-08-26T06:08:21;22.10;99.90
18105;DHT22;9179;50.968;3.134;2022-08-26T06:10:49;22.00;99.90
18105;DHT22;9179;50.968;3.134;2022-08-26T06:13:19;22.00;99.90
18105;DHT22;9179;50.968;3.134;2022-08-26T06:15:49;22.20;99.90
18105;DHT22;9179;50.968;3.134;2022-08-26T06:18:18;22.10;99.90
18105;DHT22;9179;50.968;3.134;2022-08-26T06:20:46;22.30;99.90
18105;DHT22;9179;50.968;3.134;2022-08-26T06:23:15;22.40;99.90
18105;DHT22;9179;50.968;3.134;2022-08-26T06:26:00;22.40;99.90
18105;DHT22;9179;50.968;3.134;2022-08-26T06:28:29;22.50;99.90
18105;DHT22;9179;50.968;3.134;2022-08-26T06:30:56;22.60;99.90
18105;DHT22;9179;50.968;3.134;2022-08-26T06:33:24;22.60;99.90
18105;DHT22;9179;50.968;3.134;2022-08-26T06:35:53;22.60;99.90
18105;DHT22;9179;50.968;3.134;2022-08-26T06:38:20;22.60;99.90
18105;DHT22;9179;50.968;3.134;2022-08-26T06:40:49;22.50;99.90
18105;DHT22;9179;50.968;3.134;2022-08-26T06:43:18;22.40;99.90
18105;DHT22;9179;50.968;3.134;2022-08-26T06:45:47;22.60;99.90
18105;DHT22;9179;50.968;3.134;2022-08-26T06:48:15;22.80;99.90
18105;DHT22;9179;50.968;3.134;2022-08-26T06:50:42;22.90;99.90
18105;DHT22;9179;50.968;3.134;2022-08-26T06:53:11;23.00;99.90
18105;DHT22;9179;50.968;3.134;2022-08-26T06:55:39;23.20;99.90
18105;DHT22;9179;50.968;3.134;2022-08-26T06:58:06;23.30;99.90
18105;DHT22;9179;50.968;3.134;2022-08-26T07:00:34;23.30;99.90
18105;DHT22;9179;50.968;3.134;2022-08-26T07:03:02;23.30;99.90
18105;DHT22;9179;50.968;3.134;2022-08-26T07:05:29;23.40;99.90
18105;DHT22;9179;50.968;3.134;2022-08-26T07:07:56;23.50;99.90
18105;DHT22;9179;50.968;3.134;2022-08-26T07:10:24;23.60;99.90
18105;DHT22;9179;50.968;3.134;2022-08-26T07:12:51;23.60;99.90
18105;DHT22;9179;50.968;3.134;2022-08-26T07:15:19;23.80;99.90
18105;DHT22;9179;50.968;3.134;2022-08-26T07:17:45;23.80;99.90
18105;DHT22;9179;50.968;3.134;2022-08-26T07:20:14;24.10;99.90
18105;DHT22;9179;50.968;3.134;2022-08-26T07:22:41;24.50;99.90
18105;DHT22;9179;50.968;3.134;2022-08-26T07:25:08;25.00;99.90
18105;DHT22;9179;50.968;3.134;2022-08-26T07:27:36;25.00;99.90
18105;DHT22;9179;50.968;3.134;2022-08-26T07:30:05;25.00;99.90
18105;DHT22;9179;50.968;3.134;2022-08-26T07:32:32;25.00;99.90
18105;DHT22;9179;50.968;3.134;2022-08-26T07:34:59;24.90;99.90
18105;DHT22;9179;50.968;3.134;2022-08-26T07:37:27;24.80;99.90
18105;DHT22;9179;50.968;3.134;2022-08-26T07:39:54;24.60;99.90
18105;DHT22;9179;50.968;3.134;2022-08-26T07:42:21;24.30;99.90
18105;DHT22;9179;50.968;3.134;2022-08-26T07:44:48;24.40;99.90
18105;DHT22;9179;50.968;3.134;2022-08-26T07:47:15;24.60;99.90
18105;DHT22;9179;50.968;3.134;2022-08-26T07:49:42;24.60;99.90
18105;DHT22;9179;50.968;3.134;2022-08-26T07:52:09;24.60;99.90
18105;DHT22;9179;50.968;3.134;2022-08-26T07:54:38;24.60;99.90
18105;DHT22;9179;50.968;3.134;2022-08-26T07:57:05;24.70;99.90
18105;DHT22;9179;50.968;3.134;2022-08-26T07:59:32;24.80;99.90
18105;DHT22;9179;50.968;3.134;2022-08-26T08:02:00;24.80;99.90
18105;DHT22;9179;50.968;3.134;2022-08-26T08:04:27;25.00;99.90
18105;DHT22;9179;50.968;3.134;2022-08-26T08:06:54;24.90;99.90
18105;DHT22;9179;50.968;3.134;2022-08-26T08:09:21;25.00;99.90
18105;DHT22;9179;50.968;3.134;2022-08-26T08:11:50;25.30;99.90
18105;DHT22;9179;50.968;3.134;2022-08-26T08:14:17;25.60;99.90
18105;DHT22;9179;50.968;3.134;2022-08-26T08:16:44;25.60;99.90
18105;DHT22;9179;50.968;3.134;2022-08-26T08:19:11;25.90;99.90
18105;DHT22;9179;50.968;3.134;2022-08-26T08:21:38;26.40;99.90
18105;DHT22;9179;50.968;3.134;2022-08-26T08:24:06;26.80;99.90
18105;DHT22;9179;50.968;3.134;2022-08-26T08:26:33;26.90;99.90
18105;DHT22;9179;50.968;3.134;2022-08-26T08:29:02;26.40;99.90
18105;DHT22;9179;50.968;3.134;2022-08-26T08:31:31;26.10;99.90
18105;DHT22;9179;50.968;3.134;2022-08-26T08:33:58;25.70;99.90
18105;DHT22;9179;50.968;3.134;2022-08-26T08:36:25;26.00;99.90
18105;DHT22;9179;50.968;3.134;2022-08-26T08:38:52;25.90;99.90
18105;DHT22;9179;50.968;3.134;2022-08-26T08:41:40;25.60;99.90
18105;DHT22;9179;50.968;3.134;2022-08-26T08:44:14;25.50;99.90
18105;DHT22;9179;50.968;3.134;2022-08-26T08:46:43;26.30;99.90
18105;DHT22;9179;50.968;3.134;2022-08-26T08:49:13;26.70;99.90
18105;DHT22;9179;50.968;3.134;2022-08-26T08:51:43;26.40;99.90
18105;DHT22;9179;50.968;3.134;2022-08-26T08:54:12;26.60;99.90
18105;DHT22;9179;50.968;3.134;2022-08-26T08:56:43;29.70;99.90
18105;DHT22;9179;50.968;3.134;2022-08-26T08:59:15;31.90;99.90
18105;DHT22;9179;50.968;3.134;2022-08-26T09:01:54;31.10;98.20
18105;DHT22;9179;50.968;3.134;2022-08-26T09:04:45;29.40;98.80
18105;DHT22;9179;50.968;3.134;2022-08-26T09:07:19;27.90;99.80
18105;DHT22;9179;50.968;3.134;2022-08-26T09:09:48;27.50;99.90
18105;DHT22;9179;50.968;3.134;2022-08-26T09:12:23;28.30;99.90
18105;DHT22;9179;50.968;3.134;2022-08-26T09:14:52;30.40;98.70
18105;DHT22;9179;50.968;3.134;2022-08-26T09:17:31;29.70;96.80
18105;DHT22;9179;50.968;3.134;2022-08-26T09:20:08;28.50;97.40
18105;DHT22;9179;50.968;3.134;2022-08-26T09:22:37;28.00;98.20
18105;DHT22;9179;50.968;3.134;2022-08-26T09:25:10;28.00;98.50
18105;DHT22;9179;50.968;3.134;2022-08-26T09:27:41;27.60;98.60
18105;DHT22;9179;50.968;3.134;2022-08-26T09:30:12;27.30;99.10
18105;DHT22;9179;50.968;3.134;2022-08-26T09:32:40;27.30;99.90
18105;DHT22;9179;50.968;3.134;2022-08-26T09:35:23;27.30;99.90
18105;DHT22;9179;50.968;3.134;2022-08-26T09:37:50;26.80;99.90
18105;DHT22;9179;50.968;3.134;2022-08-26T09:40:35;26.60;99.90
18105;DHT22;9179;50.968;3.134;2022-08-26T09:43:11;26.70;99.90
18105;DHT22;9179;50.968;3.134;2022-08-26T09:45:43;28.20;99.90
18105;DHT22;9179;50.968;3.134;2022-08-26T09:48:11;29.00;98.30
18105;DHT22;9179;50.968;3.134;2022-08-26T09:50:53;29.20;97.50
18105;DHT22;9179;50.968;3.134;2022-08-26T09:53:21;29.40;96.60
18105;DHT22;9179;50.968;3.134;2022-08-26T09:55:52;29.80;95.90
18105;DHT22;9179;50.968;3.134;2022-08-26T09:58:37;29.90;95.30
18105;DHT22;9179;50.968;3.134;2022-08-26T10:01:07;30.20;94.70
18105;DHT22;9179;50.968;3.134;2022-08-26T10:03:36;30.20;94.10
18105;DHT22;9179;50.968;3.134;2022-08-26T10:06:06;32.10;93.20
18105;DHT22;9179;50.968;3.134;2022-08-26T10:08:41;33.20;90.50
18105;DHT22;9179;50.968;3.134;2022-08-26T10:11:13;33.60;87.80
18105;DHT22;9179;50.968;3.134;2022-08-26T10:13:45;33.70;85.80
18105;DHT22;9179;50.968;3.134;2022-08-26T10:16:18;33.30;83.60
18105;DHT22;9179;50.968;3.134;2022-08-26T10:18:50;31.50;85.90
18105;DHT22;9179;50.968;3.134;2022-08-26T10:21:22;30.30;89.10
18105;DHT22;9179;50.968;3.134;2022-08-26T10:23:52;30.40;91.10
18105;DHT22;9179;50.968;3.134;2022-08-26T10:26:24;30.60;90.50
18105;DHT22;9179;50.968;3.134;2022-08-26T10:28:56;31.50;90.10
18105;DHT22;9179;50.968;3.134;2022-08-26T10:31:38;32.80;86.30
18105;DHT22;9179;50.968;3.134;2022-08-26T10:34:06;32.80;82.70
18105;DHT22;9179;50.968;3.134;2022-08-26T10:36:37;31.80;84.90
18105;DHT22;9179;50.968;3.134;2022-08-26T10:39:20;30.80;86.70
18105;DHT22;9179;50.968;3.134;2022-08-26T10:41:51;30.00;88.00
18105;DHT22;9179;50.968;3.134;2022-08-26T10:44:19;28.90;90.20
18105;DHT22;9179;50.968;3.134;2022-08-26T10:46:52;28.10;91.40
18105;DHT22;9179;50.968;3.134;2022-08-26T10:49:20;27.60;92.20
18105;DHT22;9179;50.968;3.134;2022-08-26T10:51:53;26.90;93.00
18105;DHT22;9179;50.968;3.134;2022-08-26T10:54:27;26.50;94.00
18105;DHT22;9179;50.968;3.134;2022-08-26T10:56:58;26.10;95.00
18105;DHT22;9179;50.968;3.134;2022-08-26T10:59:45;25.80;95.90
18105;DHT22;9179;50.968;3.134;2022-08-26T11:02:19;25.80;96.40
18105;DHT22;9179;50.968;3.134;2022-08-26T11:04:53;25.90;96.50
18105;DHT22;9179;50.968;3.134;2022-08-26T11:07:48;26.30;96.20
18105;DHT22;9179;50.968;3.134;2022-08-26T11:13:57;28.10;95.80
18105;DHT22;9179;50.968;3.134;2022-08-26T11:16:38;29.40;92.70
18105;DHT22;9179;50.968;3.134;2022-08-26T11:19:09;29.30;92.30
18105;DHT22;9179;50.968;3.134;2022-08-26T11:22:00;29.60;91.40
18105;DHT22;9179;50.968;3.134;2022-08-26T11:24:59;30.20;91.40
18105;DHT22;9179;50.968;3.134;2022-08-26T11:27:55;32.20;89.70
18105;DHT22;9179;50.968;3.134;2022-08-26T11:30:43;32.90;84.00
18105;DHT22;9179;50.968;3.134;2022-08-26T11:39:22;32.30;81.60
18105;DHT22;9179;50.968;3.134;2022-08-26T11:41:51;32.50;80.60
18105;DHT22;9179;50.968;3.134;2022-08-26T11:44:20;32.40;80.00
18105;DHT22;9179;50.968;3.134;2022-08-26T11:46:53;32.40;79.60
18105;DHT22;9179;50.968;3.134;2022-08-26T11:49:20;32.50;78.30
18105;DHT22;9179;50.968;3.134;2022-08-26T11:51:48;31.90;78.60
18105;DHT22;9179;50.968;3.134;2022-08-26T11:54:18;31.90;78.60
18105;DHT22;9179;50.968;3.134;2022-08-26T11:56:47;32.10;77.80
18105;DHT22;9179;50.968;3.134;2022-08-26T11:59:18;31.20;78.30
18105;DHT22;9179;50.968;3.134;2022-08-26T12:01:51;30.40;81.00
18105;DHT22;9179;50.968;3.134;2022-08-26T12:04:25;29.10;82.60
18105;DHT22;9179;50.968;3.134;2022-08-26T12:06:54;28.20;86.20
18105;DHT22;9179;50.968;3.134;2022-08-26T12:09:27;27.50;87.30
18105;DHT22;9179;50.968;3.134;2022-08-26T12:12:09;27.00;89.40
18105;DHT22;9179;50.968;3.134;2022-08-26T12:14:36;27.00;90.50
18105;DHT22;9179;50.968;3.134;2022-08-26T12:17:09;27.70;90.90
18105;DHT22;9179;50.968;3.134;2022-08-26T12:19:36;29.40;89.50
18105;DHT22;9179;50.968;3.134;2022-08-26T12:22:20;30.60;87.30
18105;DHT22;9179;50.968;3.134;2022-08-26T12:24:50;31.80;83.10
18105;DHT22;9179;50.968;3.134;2022-08-26T12:27:20;33.10;79.80
18105;DHT22;9179;50.968;3.134;2022-08-26T12:29:59;32.40;76.20
18105;DHT22;9179;50.968;3.134;2022-08-26T12:32:27;31.00;78.40
18105;DHT22;9179;50.968;3.134;2022-08-26T12:34:55;31.10;80.20
18105;DHT22;9179;50.968;3.134;2022-08-26T12:37:25;31.40;78.00
18105;DHT22;9179;50.968;3.134;2022-08-26T12:39:53;30.30;78.60
18105;DHT22;9179;50.968;3.134;2022-08-26T12:42:37;29.20;81.10
18105;DHT22;9179;50.968;3.134;2022-08-26T12:45:05;28.70;83.40
18105;DHT22;9179;50.968;3.134;2022-08-26T12:47:34;29.40;85.00
18105;DHT22;9179;50.968;3.134;2022-08-26T12:50:05;31.30;81.80
18105;DHT22;9179;50.968;3.134;2022-08-26T12:52:37;32.50;77.40
18105;DHT22;9179;50.968;3.134;2022-08-26T12:55:07;33.10;76.10
18105;DHT22;9179;50.968;3.134;2022-08-26T12:57:43;33.30;72.50
18105;DHT22;9179;50.968;3.134;2022-08-26T13:00:30;31.80;74.40
18105;DHT22;9179;50.968;3.134;2022-08-26T13:02:59;30.50;76.30
18105;DHT22;9179;50.968;3.134;2022-08-26T13:05:28;29.70;77.70
18105;DHT22;9179;50.968;3.134;2022-08-26T13:08:10;29.30;79.30
18105;DHT22;9179;50.968;3.134;2022-08-26T13:10:39;29.20;79.40
18105;DHT22;9179;50.968;3.134;2022-08-26T13:13:06;28.80;81.00
18105;DHT22;9179;50.968;3.134;2022-08-26T13:15:33;28.50;81.90
18105;DHT22;9179;50.968;3.134;2022-08-26T13:18:00;28.10;83.40
18105;DHT22;9179;50.968;3.134;2022-08-26T13:20:27;27.90;84.40
18105;DHT22;9179;50.968;3.134;2022-08-26T13:22:54;27.80;84.40
18105;DHT22;9179;50.968;3.134;2022-08-26T13:25:23;28.80;85.00
18105;DHT22;9179;50.968;3.134;2022-08-26T13:27:49;30.90;80.70
18105;DHT22;9179;50.968;3.134;2022-08-26T13:30:16;32.50;76.80
18105;DHT22;9179;50.968;3.134;2022-08-26T13:32:44;33.30;73.60
18105;DHT22;9179;50.968;3.134;2022-08-26T13:35:11;32.00;73.60
18105;DHT22;9179;50.968;3.134;2022-08-26T13:37:38;30.20;76.20
18105;DHT22;9179;50.968;3.134;2022-08-26T13:40:05;28.60;79.50
18105;DHT22;9179;50.968;3.134;2022-08-26T13:42:33;28.00;82.20
18105;DHT22;9179;50.968;3.134;2022-08-26T13:45:01;28.10;83.90
18105;DHT22;9179;50.968;3.134;2022-08-26T13:47:28;30.70;80.80
18105;DHT22;9179;50.968;3.134;2022-08-26T13:49:55;33.50;74.80
18105;DHT22;9179;50.968;3.134;2022-08-26T13:52:22;35.00;69.30
18105;DHT22;9179;50.968;3.134;2022-08-26T13:54:49;34.80;67.80
18105;DHT22;9179;50.968;3.134;2022-08-26T13:57:16;32.50;69.80
18105;DHT22;9179;50.968;3.134;2022-08-26T13:59:44;30.80;73.80
18105;DHT22;9179;50.968;3.134;2022-08-26T14:02:11;32.00;72.30
18105;DHT22;9179;50.968;3.134;2022-08-26T14:04:38;32.30;70.40
18105;DHT22;9179;50.968;3.134;2022-08-26T14:07:05;31.30;71.30
18105;DHT22;9179;50.968;3.134;2022-08-26T14:09:32;31.40;71.60
18105;DHT22;9179;50.968;3.134;2022-08-26T14:11:59;31.50;72.30
18105;DHT22;9179;50.968;3.134;2022-08-26T14:14:26;33.30;69.20
18105;DHT22;9179;50.968;3.134;2022-08-26T14:16:54;35.20;65.70
18105;DHT22;9179;50.968;3.134;2022-08-26T14:19:21;35.00;63.60
18105;DHT22;9179;50.968;3.134;2022-08-26T14:21:48;33.40;66.30
18105;DHT22;9179;50.968;3.134;2022-08-26T14:24:15;34.90;64.20
18105;DHT22;9179;50.968;3.134;2022-08-26T14:26:42;36.70;61.40
18105;DHT22;9179;50.968;3.134;2022-08-26T14:29:09;37.00;59.40
18105;DHT22;9179;50.968;3.134;2022-08-26T14:31:36;35.10;61.50
18105;DHT22;9179;50.968;3.134;2022-08-26T14:34:06;35.70;60.80
18105;DHT22;9179;50.968;3.134;2022-08-26T14:36:33;36.60;59.30
18105;DHT22;9179;50.968;3.134;2022-08-26T14:39:04;37.00;58.70
18105;DHT22;9179;50.968;3.134;2022-08-26T14:41:32;37.40;57.40
18105;DHT22;9179;50.968;3.134;2022-08-26T14:44:04;36.50;57.40
18105;DHT22;9179;50.968;3.134;2022-08-26T14:46:38;33.10;62.00
18105;DHT22;9179;50.968;3.134;2022-08-26T14:49:07;32.50;65.50
18105;DHT22;9179;50.968;3.134;2022-08-26T14:51:34;34.40;62.70
18105;DHT22;9179;50.968;3.134;2022-08-26T14:54:01;35.60;60.30
18105;DHT22;9179;50.968;3.134;2022-08-26T14:56:45;36.70;58.90
18105;DHT22;9179;50.968;3.134;2022-08-26T14:59:15;34.20;60.40
18105;DHT22;9179;50.968;3.134;2022-08-26T15:01:43;32.60;65.00
18105;DHT22;9179;50.968;3.134;2022-08-26T15:04:12;33.80;63.30
18105;DHT22;9179;50.968;3.134;2022-08-26T15:06:39;34.30;61.40
18105;DHT22;9179;50.968;3.134;2022-08-26T15:09:07;35.10;60.50
18105;DHT22;9179;50.968;3.134;2022-08-26T15:11:34;36.20;59.30
18105;DHT22;9179;50.968;3.134;2022-08-26T15:14:01;37.20;57.50
18105;DHT22;9179;50.968;3.134;2022-08-26T15:16:28;37.10;57.00
18105;DHT22;9179;50.968;3.134;2022-08-26T15:18:55;36.20;57.20
18105;DHT22;9179;50.968;3.134;2022-08-26T15:21:24;36.00;58.10
18105;DHT22;9179;50.968;3.134;2022-08-26T15:23:52;36.70;57.30
18105;DHT22;9179;50.968;3.134;2022-08-26T15:26:20;36.70;57.40
18105;DHT22;9179;50.968;3.134;2022-08-26T15:28:48;36.70;56.70
18105;DHT22;9179;50.968;3.134;2022-08-26T15:31:16;35.30;58.30
18105;DHT22;9179;50.968;3.134;2022-08-26T15:33:42;35.40;58.00
18105;DHT22;9179;50.968;3.134;2022-08-26T15:36:10;34.90;58.50
18105;DHT22;9179;50.968;3.134;2022-08-26T15:38:40;36.10;57.60
18105;DHT22;9179;50.968;3.134;2022-08-26T15:41:08;36.30;56.80
18105;DHT22;9179;50.968;3.134;2022-08-26T15:43:36;36.00;56.70
18105;DHT22;9179;50.968;3.134;2022-08-26T15:46:03;35.90;57.10
18105;DHT22;9179;50.968;3.134;2022-08-26T15:48:35;35.90;56.90
18105;DHT22;9179;50.968;3.134;2022-08-26T15:51:02;36.30;56.50
18105;DHT22;9179;50.968;3.134;2022-08-26T15:53:31;36.40;56.40
18105;DHT22;9179;50.968;3.134;2022-08-26T15:56:00;37.00;55.50
18105;DHT22;9179;50.968;3.134;2022-08-26T15:58:27;35.20;57.20
18105;DHT22;9179;50.968;3.134;2022-08-26T16:00:55;35.10;58.00
18105;DHT22;9179;50.968;3.134;2022-08-26T16:03:22;36.20;56.10
18105;DHT22;9179;50.968;3.134;2022-08-26T16:05:49;37.00;55.30
18105;DHT22;9179;50.968;3.134;2022-08-26T16:08:16;37.30;54.20
18105;DHT22;9179;50.968;3.134;2022-08-26T16:10:45;38.20;53.60